Smith Reynolds Airport
KINT : now visible

Airfield :











YOU CAN JOIN US ON...

 
LOGIN :

Register | Disclaimer

   EN    FR    IT 

 









Legend :    VFR   Marginal VFR   IFR   Intensive IFR   Very Intensive IFR
Visi :
Ceiling :
>= 8 km
>= 3000ft
5 to 8 km
1000 to 3000 ft
1500m to 5 km
500 to 1000 ft
800 to 1500m
200 to 500 ft
< 800m
< 200 ft
Symbols :   Thunderstorms  Fog  Heavy snow  Heavy precipitations  Wind > 20 kt






- Airport Elevation : 969 ft
- IATA code : INT


KINT - Smith Reynolds

CURRENT METAR :
  • 081954Z 10007KT 10SM FEW038 FEW046 SCT060 31/23 A3013 RMK AO2 SLP190 T03060233

EXPIRED METARs :
  • 081854Z 08006KT 10SM FEW065 BKN085 29/24 A3014 RMK AO2 SLP195 T02940239
  • 081802Z 14005KT 10SM SCT028 SCT041 BKN065 28/23 A3016 RMK AO2 LTG DSNT E T02830228
  • 081754Z 09005KT 10SM BKN028 BKN033 OVC110 29/23 A3016 RMK AO2 SLP202 T02890233 10300 20228 58006
  • 081727Z 04004KT 10SM BKN029 BKN055 29/23 A3017 RMK AO2 LTG DSNT E T02890233
  • 081654Z 00000KT 10SM FEW029 SCT038 BKN046 28/23 A3017 RMK AO2 SLP205 T02830228

TAF KINT
Valid from the 08 at 18:00 until the 09 at 18:00 UTC


081740Z 0818/0918 VRB04KT P6SM VCTS SCT025 BKN040CB
FM090600 00000KT P6SM SCT250
TEMPO 0908/0912 2SM BR SCT003
FM091200 VRB03KT P6SM SCT015
KZTL FIR / North America



MET'MAP, your aeronautical weather chart ! - Copyright ORBIFLY December 2007 - Disclaimer

ORBIFLY MET'MAP TEAM :

Programming & Development : Alexandra Zaïnal
Concept & original design : Baudouin d'Aumeries
Assistance for programming : Marc-Olivier Méhu
Technical & hardware support : Manuel Goepfert

Contact : metmap@orbifly.com




SOURCES & CREDITS :

   NOAA       Earth
Advisory